Burnett, Wisconsin
Current Conditions -  °F | °C
As of 10:55 AM on Saturday 25 Oct 2014 (Local Time) from KUNU Reporting Station
Clear Clear  
Wind Chill: 60°   Ceiling: Unl
Heat Index: 60°   Visibility: 10mi
Dew Point: 39°   Wind: 12mph
Humidity: 47%   Direction: 290°WNW
Pressure: 29.94"   Gusts: 20mph
Location:  43.5°N, 88.71°W
Report Text: KUNU 251555Z AUTO 29010G17KT 260V320 10SM CLR 15/04 A2994 RMK AO2 T01530039
Loading
Personal Weather Stations






























Interactive Weather Map
Tropical Storm Tracking
New forecast layout! Learn more

10-Day Weather Forecast

Advertisements
Track Severe Weather on mobile